sensor_id;sensor_type;location;lat;lon;timestamp;P1;durP1;ratioP1;P2;durP2;ratioP2
13244;SDS011;6689;53.400;12.486;2023-05-07T00:01:22;13.45;;;12.15;;
13244;SDS011;6689;53.400;12.486;2023-05-07T00:03:49;13.85;;;11.70;;
13244;SDS011;6689;53.400;12.486;2023-05-07T00:06:18;14.23;;;11.68;;
13244;SDS011;6689;53.400;12.486;2023-05-07T00:08:46;13.77;;;12.32;;
13244;SDS011;6689;53.400;12.486;2023-05-07T00:11:14;15.55;;;12.38;;
13244;SDS011;6689;53.400;12.486;2023-05-07T00:13:42;13.55;;;11.32;;
13244;SDS011;6689;53.400;12.486;2023-05-07T00:16:09;16.30;;;12.45;;
13244;SDS011;6689;53.400;12.486;2023-05-07T00:18:37;14.63;;;11.85;;
13244;SDS011;6689;53.400;12.486;2023-05-07T00:21:04;14.07;;;11.48;;
13244;SDS011;6689;53.400;12.486;2023-05-07T00:23:33;15.68;;;10.93;;
13244;SDS011;6689;53.400;12.486;2023-05-07T00:26:00;12.45;;;11.13;;
13244;SDS011;6689;53.400;12.486;2023-05-07T00:28:28;13.15;;;10.27;;
13244;SDS011;6689;53.400;12.486;2023-05-07T00:30:56;13.32;;;10.82;;
13244;SDS011;6689;53.400;12.486;2023-05-07T00:33:25;13.70;;;11.30;;
13244;SDS011;6689;53.400;12.486;2023-05-07T00:35:53;16.15;;;11.10;;
13244;SDS011;6689;53.400;12.486;2023-05-07T00:38:20;15.02;;;11.15;;
13244;SDS011;6689;53.400;12.486;2023-05-07T00:40:49;14.63;;;11.18;;
13244;SDS011;6689;53.400;12.486;2023-05-07T00:43:16;13.30;;;9.90;;
13244;SDS011;6689;53.400;12.486;2023-05-07T00:45:44;15.07;;;11.00;;
13244;SDS011;6689;53.400;12.486;2023-05-07T00:48:11;15.25;;;11.23;;
13244;SDS011;6689;53.400;12.486;2023-05-07T00:50:40;14.82;;;11.57;;
13244;SDS011;6689;53.400;12.486;2023-05-07T00:53:08;13.90;;;10.95;;
13244;SDS011;6689;53.400;12.486;2023-05-07T00:55:35;15.48;;;11.88;;
13244;SDS011;6689;53.400;12.486;2023-05-07T00:58:05;12.98;;;11.02;;
13244;SDS011;6689;53.400;12.486;2023-05-07T01:00:33;13.15;;;10.63;;
13244;SDS011;6689;53.400;12.486;2023-05-07T01:03:01;12.35;;;11.02;;
13244;SDS011;6689;53.400;12.486;2023-05-07T01:05:28;12.68;;;11.15;;
13244;SDS011;6689;53.400;12.486;2023-05-07T01:07:56;13.98;;;11.27;;
13244;SDS011;6689;53.400;12.486;2023-05-07T01:10:24;14.55;;;11.82;;
13244;SDS011;6689;53.400;12.486;2023-05-07T01:12:59;16.00;;;11.52;;
13244;SDS011;6689;53.400;12.486;2023-05-07T01:15:32;12.60;;;10.75;;
13244;SDS011;6689;53.400;12.486;2023-05-07T01:18:01;15.80;;;12.38;;
13244;SDS011;6689;53.400;12.486;2023-05-07T01:20:30;12.95;;;11.32;;
13244;SDS011;6689;53.400;12.486;2023-05-07T01:23:00;13.93;;;11.88;;
13244;SDS011;6689;53.400;12.486;2023-05-07T01:25:28;14.40;;;11.02;;
13244;SDS011;6689;53.400;12.486;2023-05-07T01:27:57;14.35;;;10.82;;
13244;SDS011;6689;53.400;12.486;2023-05-07T01:30:25;11.63;;;10.43;;
13244;SDS011;6689;53.400;12.486;2023-05-07T01:32:53;12.25;;;10.50;;
13244;SDS011;6689;53.400;12.486;2023-05-07T01:35:26;14.48;;;10.80;;
13244;SDS011;6689;53.400;12.486;2023-05-07T01:37:56;11.93;;;9.73;;
13244;SDS011;6689;53.400;12.486;2023-05-07T01:40:26;13.82;;;11.82;;
13244;SDS011;6689;53.400;12.486;2023-05-07T01:42:54;12.93;;;10.05;;
13244;SDS011;6689;53.400;12.486;2023-05-07T01:45:22;13.00;;;10.35;;
13244;SDS011;6689;53.400;12.486;2023-05-07T01:47:49;12.10;;;10.82;;
13244;SDS011;6689;53.400;12.486;2023-05-07T01:50:18;12.55;;;11.23;;
13244;SDS011;6689;53.400;12.486;2023-05-07T01:52:47;11.75;;;10.55;;
13244;SDS011;6689;53.400;12.486;2023-05-07T01:55:17;13.95;;;10.38;;
13244;SDS011;6689;53.400;12.486;2023-05-07T01:57:46;12.23;;;10.75;;
13244;SDS011;6689;53.400;12.486;2023-05-07T02:00:13;15.95;;;11.93;;
13244;SDS011;6689;53.400;12.486;2023-05-07T02:02:42;12.05;;;10.27;;
13244;SDS011;6689;53.400;12.486;2023-05-07T02:05:09;11.68;;;10.48;;
13244;SDS011;6689;53.400;12.486;2023-05-07T02:07:36;13.52;;;11.25;;
13244;SDS011;6689;53.400;12.486;2023-05-07T02:10:04;12.45;;;10.85;;
13244;SDS011;6689;53.400;12.486;2023-05-07T02:12:33;16.27;;;11.48;;
13244;SDS011;6689;53.400;12.486;2023-05-07T02:15:02;13.13;;;10.98;;
13244;SDS011;6689;53.400;12.486;2023-05-07T02:17:29;13.38;;;11.00;;
13244;SDS011;6689;53.400;12.486;2023-05-07T02:19:58;13.35;;;11.35;;
13244;SDS011;6689;53.400;12.486;2023-05-07T02:22:27;12.20;;;10.50;;
13244;SDS011;6689;53.400;12.486;2023-05-07T02:24:55;13.50;;;10.73;;
13244;SDS011;6689;53.400;12.486;2023-05-07T02:27:22;14.15;;;11.35;;
13244;SDS011;6689;53.400;12.486;2023-05-07T02:29:50;17.00;;;12.05;;
13244;SDS011;6689;53.400;12.486;2023-05-07T02:32:18;15.02;;;12.35;;
13244;SDS011;6689;53.400;12.486;2023-05-07T02:34:46;13.55;;;12.15;;
13244;SDS011;6689;53.400;12.486;2023-05-07T02:37:16;14.40;;;10.98;;
13244;SDS011;6689;53.400;12.486;2023-05-07T02:39:44;11.93;;;10.73;;
13244;SDS011;6689;53.400;12.486;2023-05-07T02:42:11;14.90;;;11.82;;
13244;SDS011;6689;53.400;12.486;2023-05-07T02:44:38;16.35;;;11.95;;
13244;SDS011;6689;53.400;12.486;2023-05-07T02:47:06;16.45;;;12.23;;
13244;SDS011;6689;53.400;12.486;2023-05-07T02:49:36;15.32;;;11.45;;
13244;SDS011;6689;53.400;12.486;2023-05-07T02:52:03;14.68;;;11.80;;
13244;SDS011;6689;53.400;12.486;2023-05-07T02:54:31;15.13;;;10.93;;
13244;SDS011;6689;53.400;12.486;2023-05-07T02:56:58;13.88;;;11.50;;
13244;SDS011;6689;53.400;12.486;2023-05-07T02:59:26;13.82;;;12.25;;
13244;SDS011;6689;53.400;12.486;2023-05-07T03:01:53;13.57;;;12.07;;
13244;SDS011;6689;53.400;12.486;2023-05-07T03:04:20;12.30;;;10.45;;
13244;SDS011;6689;53.400;12.486;2023-05-07T03:06:52;14.30;;;12.15;;
13244;SDS011;6689;53.400;12.486;2023-05-07T03:09:20;15.70;;;12.25;;
13244;SDS011;6689;53.400;12.486;2023-05-07T03:11:47;12.55;;;11.15;;
13244;SDS011;6689;53.400;12.486;2023-05-07T03:14:14;14.73;;;11.80;;
13244;SDS011;6689;53.400;12.486;2023-05-07T03:16:41;15.00;;;12.68;;
13244;SDS011;6689;53.400;12.486;2023-05-07T03:19:09;13.25;;;11.52;;
13244;SDS011;6689;53.400;12.486;2023-05-07T03:21:36;18.05;;;12.85;;
13244;SDS011;6689;53.400;12.486;2023-05-07T03:24:06;13.90;;;11.65;;
13244;SDS011;6689;53.400;12.486;2023-05-07T03:26:33;13.52;;;11.43;;
13244;SDS011;6689;53.400;12.486;2023-05-07T03:29:00;15.32;;;12.00;;
13244;SDS011;6689;53.400;12.486;2023-05-07T03:31:27;16.65;;;12.30;;
13244;SDS011;6689;53.400;12.486;2023-05-07T03:33:56;14.65;;;11.98;;
13244;SDS011;6689;53.400;12.486;2023-05-07T03:36:24;13.60;;;12.15;;
13244;SDS011;6689;53.400;12.486;2023-05-07T03:38:52;14.60;;;11.60;;
13244;SDS011;6689;53.400;12.486;2023-05-07T03:41:20;13.30;;;11.43;;
13244;SDS011;6689;53.400;12.486;2023-05-07T03:43:48;14.50;;;11.50;;
13244;SDS011;6689;53.400;12.486;2023-05-07T03:46:15;16.63;;;11.60;;
13244;SDS011;6689;53.400;12.486;2023-05-07T03:48:45;15.65;;;12.52;;
13244;SDS011;6689;53.400;12.486;2023-05-07T03:51:12;14.27;;;12.68;;
13244;SDS011;6689;53.400;12.486;2023-05-07T03:53:40;13.13;;;11.70;;
13244;SDS011;6689;53.400;12.486;2023-05-07T03:56:07;13.93;;;12.38;;
13244;SDS011;6689;53.400;12.486;2023-05-07T03:58:36;13.85;;;12.43;;
13244;SDS011;6689;53.400;12.486;2023-05-07T04:01:04;14.48;;;12.98;;
13244;SDS011;6689;53.400;12.486;2023-05-07T04:03:32;13.93;;;12.43;;
13244;SDS011;6689;53.400;12.486;2023-05-07T04:06:00;13.88;;;12.45;;
13244;SDS011;6689;53.400;12.486;2023-05-07T04:08:27;17.65;;;12.70;;
13244;SDS011;6689;53.400;12.486;2023-05-07T04:10:55;15.75;;;12.60;;
13244;SDS011;6689;53.400;12.486;2023-05-07T04:13:22;12.95;;;11.43;;
13244;SDS011;6689;53.400;12.486;2023-05-07T04:15:52;16.10;;;12.32;;
13244;SDS011;6689;53.400;12.486;2023-05-07T04:18:21;17.10;;;12.18;;
13244;SDS011;6689;53.400;12.486;2023-05-07T04:20:51;13.48;;;12.07;;
13244;SDS011;6689;53.400;12.486;2023-05-07T04:23:18;15.45;;;10.82;;
13244;SDS011;6689;53.400;12.486;2023-05-07T04:25:46;12.40;;;11.10;;
13244;SDS011;6689;53.400;12.486;2023-05-07T04:28:13;14.90;;;10.93;;
13244;SDS011;6689;53.400;12.486;2023-05-07T04:30:41;11.60;;;10.38;;
13244;SDS011;6689;53.400;12.486;2023-05-07T04:33:10;15.32;;;10.23;;
13244;SDS011;6689;53.400;12.486;2023-05-07T04:35:37;12.30;;;9.38;;
13244;SDS011;6689;53.400;12.486;2023-05-07T04:38:04;9.80;;;8.63;;
13244;SDS011;6689;53.400;12.486;2023-05-07T04:40:31;11.82;;;8.85;;
13244;SDS011;6689;53.400;12.486;2023-05-07T04:42:59;10.90;;;8.40;;
13244;SDS011;6689;53.400;12.486;2023-05-07T04:45:26;13.35;;;8.57;;
13244;SDS011;6689;53.400;12.486;2023-05-07T04:47:54;9.13;;;7.63;;
13244;SDS011;6689;53.400;12.486;2023-05-07T04:50:22;12.15;;;8.90;;
13244;SDS011;6689;53.400;12.486;2023-05-07T04:52:51;11.18;;;9.70;;
13244;SDS011;6689;53.400;12.486;2023-05-07T04:55:18;9.93;;;8.75;;
13244;SDS011;6689;53.400;12.486;2023-05-07T04:57:45;10.90;;;8.10;;
13244;SDS011;6689;53.400;12.486;2023-05-07T05:00:14;10.43;;;8.70;;
13244;SDS011;6689;53.400;12.486;2023-05-07T05:02:44;10.60;;;7.68;;
13244;SDS011;6689;53.400;12.486;2023-05-07T05:05:12;8.73;;;7.25;;
13244;SDS011;6689;53.400;12.486;2023-05-07T05:07:41;11.00;;;8.32;;
13244;SDS011;6689;53.400;12.486;2023-05-07T05:10:08;11.57;;;8.32;;
13244;SDS011;6689;53.400;12.486;2023-05-07T05:12:36;11.18;;;8.38;;
13244;SDS011;6689;53.400;12.486;2023-05-07T05:15:03;12.98;;;7.97;;
13244;SDS011;6689;53.400;12.486;2023-05-07T05:17:31;10.45;;;8.23;;
13244;SDS011;6689;53.400;12.486;2023-05-07T05:20:00;11.07;;;7.47;;
13244;SDS011;6689;53.400;12.486;2023-05-07T05:22:27;11.98;;;8.13;;
13244;SDS011;6689;53.400;12.486;2023-05-07T05:24:58;10.75;;;8.50;;
13244;SDS011;6689;53.400;12.486;2023-05-07T05:27:25;13.57;;;8.70;;
13244;SDS011;6689;53.400;12.486;2023-05-07T05:29:53;11.73;;;9.00;;
13244;SDS011;6689;53.400;12.486;2023-05-07T05:32:20;9.95;;;7.30;;
13244;SDS011;6689;53.400;12.486;2023-05-07T05:34:47;8.63;;;7.68;;
13244;SDS011;6689;53.400;12.486;2023-05-07T05:37:15;10.77;;;7.50;;
13244;SDS011;6689;53.400;12.486;2023-05-07T05:39:43;9.82;;;7.72;;
13244;SDS011;6689;53.400;12.486;2023-05-07T05:42:12;9.25;;;8.23;;
13244;SDS011;6689;53.400;12.486;2023-05-07T05:44:41;10.10;;;7.85;;
13244;SDS011;6689;53.400;12.486;2023-05-07T05:47:08;9.30;;;7.40;;
13244;SDS011;6689;53.400;12.486;2023-05-07T05:49:36;10.30;;;7.15;;
13244;SDS011;6689;53.400;12.486;2023-05-07T05:52:03;8.77;;;6.75;;
13244;SDS011;6689;53.400;12.486;2023-05-07T05:54:31;8.27;;;7.35;;
13244;SDS011;6689;53.400;12.486;2023-05-07T05:56:58;8.07;;;6.45;;
13244;SDS011;6689;53.400;12.486;2023-05-07T05:59:30;9.85;;;6.18;;
13244;SDS011;6689;53.400;12.486;2023-05-07T06:01:57;9.32;;;7.53;;
13244;SDS011;6689;53.400;12.486;2023-05-07T06:04:25;8.20;;;6.65;;
13244;SDS011;6689;53.400;12.486;2023-05-07T06:06:52;10.90;;;6.05;;
13244;SDS011;6689;53.400;12.486;2023-05-07T06:09:20;8.45;;;6.30;;
13244;SDS011;6689;53.400;12.486;2023-05-07T06:11:47;8.80;;;6.28;;
13244;SDS011;6689;53.400;12.486;2023-05-07T06:14:14;10.85;;;6.07;;
13244;SDS011;6689;53.400;12.486;2023-05-07T06:16:45;8.30;;;6.30;;
13244;SDS011;6689;53.400;12.486;2023-05-07T06:19:12;8.05;;;5.22;;
13244;SDS011;6689;53.400;12.486;2023-05-07T06:21:40;7.60;;;5.97;;
13244;SDS011;6689;53.400;12.486;2023-05-07T06:24:07;9.07;;;6.05;;
13244;SDS011;6689;53.400;12.486;2023-05-07T06:26:35;7.88;;;5.35;;
13244;SDS011;6689;53.400;12.486;2023-05-07T06:29:02;7.78;;;5.80;;
13244;SDS011;6689;53.400;12.486;2023-05-07T06:31:30;7.13;;;5.93;;
13244;SDS011;6689;53.400;12.486;2023-05-07T06:34:00;10.02;;;5.97;;
13244;SDS011;6689;53.400;12.486;2023-05-07T06:36:27;8.73;;;5.18;;
13244;SDS011;6689;53.400;12.486;2023-05-07T06:38:54;8.73;;;5.45;;
13244;SDS011;6689;53.400;12.486;2023-05-07T06:41:22;8.27;;;4.82;;
13244;SDS011;6689;53.400;12.486;2023-05-07T06:43:49;7.65;;;5.13;;
13244;SDS011;6689;53.400;12.486;2023-05-07T06:46:16;6.07;;;4.90;;
13244;SDS011;6689;53.400;12.486;2023-05-07T06:48:43;6.53;;;4.53;;
13244;SDS011;6689;53.400;12.486;2023-05-07T06:51:12;6.10;;;4.47;;
13244;SDS011;6689;53.400;12.486;2023-05-07T06:53:40;8.50;;;5.32;;
13244;SDS011;6689;53.400;12.486;2023-05-07T06:56:07;5.85;;;5.00;;
13244;SDS011;6689;53.400;12.486;2023-05-07T06:58:35;5.28;;;3.85;;
13244;SDS011;6689;53.400;12.486;2023-05-07T07:01:02;6.22;;;4.45;;
13244;SDS011;6689;53.400;12.486;2023-05-07T07:03:30;7.75;;;4.55;;
13244;SDS011;6689;53.400;12.486;2023-05-07T07:05:57;6.40;;;4.38;;
13244;SDS011;6689;53.400;12.486;2023-05-07T07:08:28;5.63;;;4.32;;
13244;SDS011;6689;53.400;12.486;2023-05-07T07:10:55;6.53;;;3.92;;
13244;SDS011;6689;53.400;12.486;2023-05-07T07:13:23;6.38;;;3.92;;
13244;SDS011;6689;53.400;12.486;2023-05-07T07:15:51;5.57;;;4.28;;
13244;SDS011;6689;53.400;12.486;2023-05-07T07:18:18;8.75;;;4.22;;
13244;SDS011;6689;53.400;12.486;2023-05-07T07:20:46;5.05;;;3.95;;
13244;SDS011;6689;53.400;12.486;2023-05-07T07:23:13;5.97;;;4.25;;
13244;SDS011;6689;53.400;12.486;2023-05-07T07:25:46;5.35;;;4.20;;
13244;SDS011;6689;53.400;12.486;2023-05-07T07:28:13;6.07;;;3.75;;
13244;SDS011;6689;53.400;12.486;2023-05-07T07:30:41;5.57;;;4.28;;
13244;SDS011;6689;53.400;12.486;2023-05-07T07:33:08;10.48;;;3.72;;
13244;SDS011;6689;53.400;12.486;2023-05-07T07:35:36;6.20;;;3.33;;
13244;SDS011;6689;53.400;12.486;2023-05-07T07:38:03;5.13;;;3.72;;
13244;SDS011;6689;53.400;12.486;2023-05-07T07:40:30;5.28;;;3.70;;
13244;SDS011;6689;53.400;12.486;2023-05-07T07:42:59;7.07;;;3.97;;
13244;SDS011;6689;53.400;12.486;2023-05-07T07:45:27;6.97;;;3.40;;
13244;SDS011;6689;53.400;12.486;2023-05-07T07:47:54;4.72;;;3.95;;
13244;SDS011;6689;53.400;12.486;2023-05-07T07:50:21;10.18;;;3.97;;
13244;SDS011;6689;53.400;12.486;2023-05-07T07:52:49;5.20;;;3.83;;
13244;SDS011;6689;53.400;12.486;2023-05-07T07:55:19;4.93;;;3.92;;
13244;SDS011;6689;53.400;12.486;2023-05-07T07:57:48;6.75;;;3.65;;
13244;SDS011;6689;53.400;12.486;2023-05-07T08:00:17;3.97;;;3.20;;
13244;SDS011;6689;53.400;12.486;2023-05-07T08:02:45;4.57;;;3.40;;
13244;SDS011;6689;53.400;12.486;2023-05-07T08:05:12;5.88;;;3.83;;
13244;SDS011;6689;53.400;12.486;2023-05-07T08:07:40;4.93;;;3.00;;
13244;SDS011;6689;53.400;12.486;2023-05-07T08:10:08;4.03;;;3.03;;
13244;SDS011;6689;53.400;12.486;2023-05-07T08:12:36;4.63;;;2.92;;
13244;SDS011;6689;53.400;12.486;2023-05-07T08:15:03;6.47;;;3.30;;
13244;SDS011;6689;53.400;12.486;2023-05-07T08:17:32;3.75;;;3.00;;
13244;SDS011;6689;53.400;12.486;2023-05-07T08:19:59;5.68;;;3.30;;
13244;SDS011;6689;53.400;12.486;2023-05-07T08:22:27;4.20;;;2.72;;
13244;SDS011;6689;53.400;12.486;2023-05-07T08:24:54;3.92;;;2.80;;
13244;SDS011;6689;53.400;12.486;2023-05-07T08:27:22;4.00;;;2.85;;
13244;SDS011;6689;53.400;12.486;2023-05-07T08:29:49;5.82;;;2.65;;
13244;SDS011;6689;53.400;12.486;2023-05-07T08:32:16;4.20;;;2.63;;
13244;SDS011;6689;53.400;12.486;2023-05-07T08:34:45;7.20;;;2.92;;
13244;SDS011;6689;53.400;12.486;2023-05-07T08:37:12;3.40;;;2.20;;
13244;SDS011;6689;53.400;12.486;2023-05-07T08:39:40;5.00;;;3.03;;
13244;SDS011;6689;53.400;12.486;2023-05-07T08:42:07;3.03;;;2.22;;
13244;SDS011;6689;53.400;12.486;2023-05-07T08:44:38;4.90;;;2.63;;
13244;SDS011;6689;53.400;12.486;2023-05-07T08:47:06;4.10;;;3.03;;
13244;SDS011;6689;53.400;12.486;2023-05-07T08:49:34;6.03;;;3.03;;
13244;SDS011;6689;53.400;12.486;2023-05-07T08:52:03;2.85;;;2.05;;
13244;SDS011;6689;53.400;12.486;2023-05-07T08:54:31;3.90;;;2.00;;
13244;SDS011;6689;53.400;12.486;2023-05-07T08:56:59;5.28;;;2.28;;
13244;SDS011;6689;53.400;12.486;2023-05-07T08:59:26;3.40;;;2.47;;
13244;SDS011;6689;53.400;12.486;2023-05-07T09:01:53;4.80;;;3.33;;
13244;SDS011;6689;53.400;12.486;2023-05-07T09:04:20;3.58;;;2.78;;
13244;SDS011;6689;53.400;12.486;2023-05-07T09:06:48;3.75;;;2.50;;
13244;SDS011;6689;53.400;12.486;2023-05-07T09:09:18;4.03;;;3.13;;
13244;SDS011;6689;53.400;12.486;2023-05-07T09:11:45;3.83;;;2.30;;
13244;SDS011;6689;53.400;12.486;2023-05-07T09:14:12;4.95;;;2.67;;
13244;SDS011;6689;53.400;12.486;2023-05-07T09:16:39;4.97;;;3.00;;
13244;SDS011;6689;53.400;12.486;2023-05-07T09:19:07;5.15;;;2.80;;
13244;SDS011;6689;53.400;12.486;2023-05-07T09:21:34;5.05;;;2.72;;
13244;SDS011;6689;53.400;12.486;2023-05-07T09:24:02;4.80;;;2.72;;
13244;SDS011;6689;53.400;12.486;2023-05-07T09:26:31;2.95;;;2.47;;
13244;SDS011;6689;53.400;12.486;2023-05-07T09:29:00;6.50;;;3.13;;
13244;SDS011;6689;53.400;12.486;2023-05-07T09:31:27;4.93;;;2.72;;
13244;SDS011;6689;53.400;12.486;2023-05-07T09:33:54;7.32;;;3.72;;
13244;SDS011;6689;53.400;12.486;2023-05-07T09:36:22;4.93;;;2.80;;
13244;SDS011;6689;53.400;12.486;2023-05-07T09:38:49;5.47;;;3.53;;
13244;SDS011;6689;53.400;12.486;2023-05-07T09:41:17;4.35;;;2.90;;
13244;SDS011;6689;53.400;12.486;2023-05-07T09:43:47;7.32;;;2.90;;
13244;SDS011;6689;53.400;12.486;2023-05-07T09:46:22;6.22;;;3.30;;
13244;SDS011;6689;53.400;12.486;2023-05-07T09:48:55;5.40;;;2.90;;
13244;SDS011;6689;53.400;12.486;2023-05-07T09:53:59;7.00;;;3.20;;
13244;SDS011;6689;53.400;12.486;2023-05-07T09:56:28;5.70;;;2.85;;
13244;SDS011;6689;53.400;12.486;2023-05-07T09:58:58;5.65;;;2.85;;
13244;SDS011;6689;53.400;12.486;2023-05-07T10:01:27;3.42;;;2.80;;
13244;SDS011;6689;53.400;12.486;2023-05-07T10:03:55;4.45;;;2.67;;
13244;SDS011;6689;53.400;12.486;2023-05-07T10:06:24;5.35;;;3.53;;
13244;SDS011;6689;53.400;12.486;2023-05-07T10:08:52;3.03;;;2.60;;
13244;SDS011;6689;53.400;12.486;2023-05-07T10:11:21;10.95;;;3.47;;
13244;SDS011;6689;53.400;12.486;2023-05-07T10:13:49;4.47;;;3.20;;
13244;SDS011;6689;53.400;12.486;2023-05-07T10:16:20;4.95;;;2.97;;
13244;SDS011;6689;53.400;12.486;2023-05-07T10:18:49;3.60;;;2.95;;
13244;SDS011;6689;53.400;12.486;2023-05-07T10:21:20;6.65;;;3.97;;
13244;SDS011;6689;53.400;12.486;2023-05-07T10:23:50;4.35;;;3.30;;
13244;SDS011;6689;53.400;12.486;2023-05-07T10:26:24;4.55;;;2.97;;
13244;SDS011;6689;53.400;12.486;2023-05-07T10:28:54;9.38;;;4.10;;
13244;SDS011;6689;53.400;12.486;2023-05-07T10:34:28;5.10;;;2.70;;
13244;SDS011;6689;53.400;12.486;2023-05-07T10:37:03;6.18;;;3.25;;
13244;SDS011;6689;53.400;12.486;2023-05-07T10:39:31;8.68;;;3.55;;
13244;SDS011;6689;53.400;12.486;2023-05-07T10:42:06;5.35;;;2.40;;
13244;SDS011;6689;53.400;12.486;2023-05-07T10:44:35;4.07;;;3.30;;
13244;SDS011;6689;53.400;12.486;2023-05-07T10:47:04;4.28;;;2.88;;
13244;SDS011;6689;53.400;12.486;2023-05-07T10:49:35;3.40;;;2.70;;
13244;SDS011;6689;53.400;12.486;2023-05-07T10:52:16;4.90;;;3.63;;
13244;SDS011;6689;53.400;12.486;2023-05-07T10:54:45;7.55;;;3.72;;
13244;SDS011;6689;53.400;12.486;2023-05-07T10:57:32;6.65;;;2.83;;
13244;SDS011;6689;53.400;12.486;2023-05-07T11:00:01;4.68;;;3.33;;
13244;SDS011;6689;53.400;12.486;2023-05-07T11:05:35;7.32;;;3.30;;
13244;SDS011;6689;53.400;12.486;2023-05-07T11:08:04;8.02;;;3.83;;
13244;SDS011;6689;53.400;12.486;2023-05-07T11:10:47;4.88;;;3.10;;
13244;SDS011;6689;53.400;12.486;2023-05-07T11:13:16;5.05;;;2.90;;
13244;SDS011;6689;53.400;12.486;2023-05-07T11:15:43;6.78;;;3.60;;
13244;SDS011;6689;53.400;12.486;2023-05-07T11:18:12;7.70;;;3.50;;
13244;SDS011;6689;53.400;12.486;2023-05-07T11:20:49;3.05;;;2.65;;
13244;SDS011;6689;53.400;12.486;2023-05-07T11:26:25;6.28;;;3.03;;
13244;SDS011;6689;53.400;12.486;2023-05-07T11:28:53;5.53;;;3.05;;
13244;SDS011;6689;53.400;12.486;2023-05-07T11:31:22;3.78;;;2.53;;
13244;SDS011;6689;53.400;12.486;2023-05-07T11:33:51;4.50;;;2.72;;
13244;SDS011;6689;53.400;12.486;2023-05-07T11:36:21;4.20;;;2.85;;
13244;SDS011;6689;53.400;12.486;2023-05-07T11:38:51;3.80;;;2.80;;
13244;SDS011;6689;53.400;12.486;2023-05-07T11:41:21;5.57;;;3.50;;
13244;SDS011;6689;53.400;12.486;2023-05-07T11:43:55;4.38;;;3.17;;
13244;SDS011;6689;53.400;12.486;2023-05-07T11:46:23;3.63;;;2.58;;
13244;SDS011;6689;53.400;12.486;2023-05-07T11:48:50;4.47;;;2.63;;
13244;SDS011;6689;53.400;12.486;2023-05-07T11:51:23;4.57;;;2.67;;
13244;SDS011;6689;53.400;12.486;2023-05-07T11:53:52;4.53;;;2.37;;
13244;SDS011;6689;53.400;12.486;2023-05-07T11:56:20;4.45;;;2.97;;
13244;SDS011;6689;53.400;12.486;2023-05-07T11:58:47;4.38;;;2.80;;
13244;SDS011;6689;53.400;12.486;2023-05-07T12:01:17;4.20;;;2.75;;
13244;SDS011;6689;53.400;12.486;2023-05-07T12:03:45;4.93;;;2.50;;
13244;SDS011;6689;53.400;12.486;2023-05-07T12:06:13;3.22;;;2.40;;
13244;SDS011;6689;53.400;12.486;2023-05-07T12:08:43;5.15;;;3.53;;
13244;SDS011;6689;53.400;12.486;2023-05-07T12:11:14;4.65;;;2.38;;
13244;SDS011;6689;53.400;12.486;2023-05-07T12:13:43;3.70;;;2.47;;
13244;SDS011;6689;53.400;12.486;2023-05-07T12:16:10;3.75;;;2.17;;
13244;SDS011;6689;53.400;12.486;2023-05-07T12:18:38;3.92;;;2.42;;
13244;SDS011;6689;53.400;12.486;2023-05-07T12:21:09;4.25;;;2.15;;
13244;SDS011;6689;53.400;12.486;2023-05-07T12:23:37;2.90;;;1.98;;
13244;SDS011;6689;53.400;12.486;2023-05-07T12:26:06;4.00;;;2.58;;
13244;SDS011;6689;53.400;12.486;2023-05-07T12:28:36;6.03;;;2.33;;
13244;SDS011;6689;53.400;12.486;2023-05-07T12:31:05;5.07;;;1.98;;
13244;SDS011;6689;53.400;12.486;2023-05-07T12:33:33;6.55;;;2.30;;
13244;SDS011;6689;53.400;12.486;2023-05-07T12:36:05;4.60;;;2.63;;
13244;SDS011;6689;53.400;12.486;2023-05-07T12:38:34;4.30;;;2.40;;
13244;SDS011;6689;53.400;12.486;2023-05-07T12:41:03;4.80;;;2.40;;
13244;SDS011;6689;53.400;12.486;2023-05-07T12:43:33;3.95;;;2.10;;
13244;SDS011;6689;53.400;12.486;2023-05-07T12:46:01;4.50;;;1.75;;
13244;SDS011;6689;53.400;12.486;2023-05-07T12:48:31;2.60;;;2.20;;
13244;SDS011;6689;53.400;12.486;2023-05-07T12:50:59;3.33;;;1.95;;
13244;SDS011;6689;53.400;12.486;2023-05-07T12:53:27;5.65;;;2.17;;
13244;SDS011;6689;53.400;12.486;2023-05-07T12:55:56;3.22;;;2.03;;
13244;SDS011;6689;53.400;12.486;2023-05-07T12:58:25;3.92;;;2.00;;
13244;SDS011;6689;53.400;12.486;2023-05-07T13:00:56;3.63;;;2.10;;
13244;SDS011;6689;53.400;12.486;2023-05-07T13:03:26;8.30;;;2.15;;
13244;SDS011;6689;53.400;12.486;2023-05-07T13:05:54;3.85;;;1.80;;
13244;SDS011;6689;53.400;12.486;2023-05-07T13:08:23;2.22;;;1.92;;
13244;SDS011;6689;53.400;12.486;2023-05-07T13:10:51;3.17;;;2.10;;
13244;SDS011;6689;53.400;12.486;2023-05-07T13:13:19;4.30;;;1.83;;
13244;SDS011;6689;53.400;12.486;2023-05-07T13:15:50;3.05;;;1.95;;
13244;SDS011;6689;53.400;12.486;2023-05-07T13:18:19;3.45;;;1.80;;
13244;SDS011;6689;53.400;12.486;2023-05-07T13:20:46;2.75;;;1.83;;
13244;SDS011;6689;53.400;12.486;2023-05-07T13:23:16;4.18;;;1.73;;
13244;SDS011;6689;53.400;12.486;2023-05-07T13:25:44;3.00;;;1.60;;
13244;SDS011;6689;53.400;12.486;2023-05-07T13:28:11;3.25;;;1.95;;
13244;SDS011;6689;53.400;12.486;2023-05-07T13:30:38;3.22;;;1.80;;
13244;SDS011;6689;53.400;12.486;2023-05-07T13:33:07;3.20;;;1.75;;
13244;SDS011;6689;53.400;12.486;2023-05-07T13:35:36;3.40;;;2.22;;
13244;SDS011;6689;53.400;12.486;2023-05-07T13:38:03;3.30;;;2.22;;
13244;SDS011;6689;53.400;12.486;2023-05-07T13:40:31;3.90;;;2.20;;
13244;SDS011;6689;53.400;12.486;2023-05-07T13:42:58;5.82;;;2.35;;
13244;SDS011;6689;53.400;12.486;2023-05-07T13:45:27;3.95;;;1.85;;
13244;SDS011;6689;53.400;12.486;2023-05-07T13:47:55;3.03;;;1.80;;
13244;SDS011;6689;53.400;12.486;2023-05-07T13:50:23;3.60;;;1.80;;
13244;SDS011;6689;53.400;12.486;2023-05-07T13:52:53;3.13;;;1.60;;
13244;SDS011;6689;53.400;12.486;2023-05-07T13:55:21;2.25;;;1.70;;
13244;SDS011;6689;53.400;12.486;2023-05-07T13:57:55;2.80;;;1.27;;
13244;SDS011;6689;53.400;12.486;2023-05-07T14:00:23;4.30;;;2.33;;
13244;SDS011;6689;53.400;12.486;2023-05-07T14:02:51;2.60;;;1.85;;
13244;SDS011;6689;53.400;12.486;2023-05-07T14:05:18;2.33;;;1.85;;
13244;SDS011;6689;53.400;12.486;2023-05-07T14:07:48;3.45;;;1.75;;
13244;SDS011;6689;53.400;12.486;2023-05-07T14:10:18;2.47;;;1.40;;
13244;SDS011;6689;53.400;12.486;2023-05-07T14:12:45;3.47;;;1.30;;
13244;SDS011;6689;53.400;12.486;2023-05-07T14:15:13;3.45;;;2.05;;
13244;SDS011;6689;53.400;12.486;2023-05-07T14:17:41;2.58;;;1.48;;
13244;SDS011;6689;53.400;12.486;2023-05-07T14:20:08;3.53;;;1.77;;
13244;SDS011;6689;53.400;12.486;2023-05-07T14:22:36;3.78;;;1.77;;
13244;SDS011;6689;53.400;12.486;2023-05-07T14:25:04;9.20;;;1.90;;
13244;SDS011;6689;53.400;12.486;2023-05-07T14:27:34;4.38;;;1.80;;
13244;SDS011;6689;53.400;12.486;2023-05-07T14:30:02;5.15;;;1.75;;
13244;SDS011;6689;53.400;12.486;2023-05-07T14:32:29;2.72;;;1.80;;
13244;SDS011;6689;53.400;12.486;2023-05-07T14:34:56;2.03;;;1.50;;
13244;SDS011;6689;53.400;12.486;2023-05-07T14:37:24;3.58;;;1.83;;
13244;SDS011;6689;53.400;12.486;2023-05-07T14:39:51;4.10;;;1.88;;
13244;SDS011;6689;53.400;12.486;2023-05-07T14:42:18;1.88;;;1.40;;
13244;SDS011;6689;53.400;12.486;2023-05-07T14:44:47;2.95;;;1.70;;
13244;SDS011;6689;53.400;12.486;2023-05-07T14:47:14;3.72;;;1.73;;
13244;SDS011;6689;53.400;12.486;2023-05-07T14:49:42;3.35;;;1.70;;
13244;SDS011;6689;53.400;12.486;2023-05-07T14:52:09;2.25;;;1.85;;
13244;SDS011;6689;53.400;12.486;2023-05-07T14:54:37;2.80;;;1.92;;
13244;SDS011;6689;53.400;12.486;2023-05-07T14:57:05;3.60;;;2.28;;